createdAt,value
2019-01-11T00:00:10.237Z,23.54
2019-01-11T00:02:36.880Z,23.58
2019-01-11T00:05:03.573Z,23.59
2019-01-11T00:07:30.222Z,23.59
2019-01-11T00:09:56.926Z,23.56
2019-01-11T00:12:23.567Z,23.55
2019-01-11T00:14:50.216Z,23.57
2019-01-11T00:17:16.870Z,23.63
2019-01-11T00:19:43.510Z,23.58
2019-01-11T00:22:10.144Z,23.67
2019-01-11T00:24:36.835Z,23.60
2019-01-11T00:27:03.473Z,23.47
2019-01-11T00:29:30.129Z,23.41
2019-01-11T00:31:56.787Z,23.50
2019-01-11T00:34:23.433Z,23.42
2019-01-11T00:36:50.069Z,23.47
2019-01-11T00:39:19.715Z,23.45
2019-01-11T00:41:46.414Z,23.49
2019-01-11T00:44:13.062Z,23.46
2019-01-11T00:46:39.718Z,23.50
2019-01-11T00:49:06.447Z,23.47
2019-01-11T00:51:33.051Z,23.50
2019-01-11T00:53:59.711Z,23.50
2019-01-11T00:56:26.358Z,23.50
2019-01-11T00:58:53.006Z,23.49
2019-01-11T01:01:19.650Z,23.55
2019-01-11T01:03:46.288Z,23.48
2019-01-11T01:06:12.979Z,23.53
2019-01-11T01:08:39.670Z,23.48
2019-01-11T01:11:06.357Z,23.38
2019-01-11T01:13:33.011Z,23.30
2019-01-11T01:15:59.708Z,23.37
2019-01-11T01:18:26.371Z,23.39
2019-01-11T01:20:53.012Z,23.36
2019-01-11T01:23:19.645Z,23.36
2019-01-11T01:25:46.318Z,23.40
2019-01-11T01:28:13.016Z,23.38
2019-01-11T01:30:39.714Z,23.38
2019-01-11T01:33:06.349Z,23.37
2019-01-11T01:35:32.993Z,23.40
2019-01-11T01:37:59.692Z,23.43
2019-01-11T01:40:26.328Z,23.41
2019-01-11T01:42:52.977Z,23.41
2019-01-11T01:45:19.621Z,23.42
2019-01-11T01:47:46.309Z,23.45
2019-01-11T01:50:14.393Z,23.42
2019-01-11T01:52:39.626Z,23.38
2019-01-11T01:55:06.261Z,23.29
2019-01-11T01:57:32.906Z,23.16
2019-01-11T01:59:59.563Z,23.18
2019-01-11T02:02:26.217Z,23.20
2019-01-11T02:04:52.882Z,23.24
2019-01-11T02:07:19.534Z,23.25
2019-01-11T02:09:46.172Z,23.22
2019-01-11T02:12:12.810Z,23.30
2019-01-11T02:14:39.460Z,23.29
2019-01-11T02:17:06.162Z,23.31
2019-01-11T02:19:33.204Z,23.32
2019-01-11T02:21:59.445Z,23.23
2019-01-11T02:24:26.102Z,23.10
2019-01-11T02:26:52.789Z,22.88
2019-01-11T02:29:19.480Z,22.62
2019-01-11T02:31:46.182Z,22.62
2019-01-11T02:34:12.813Z,22.84
2019-01-11T02:36:39.511Z,22.75
2019-01-11T02:39:06.157Z,23.00
2019-01-11T02:41:32.797Z,23.03
2019-01-11T02:43:59.491Z,23.00
2019-01-11T02:46:26.209Z,23.07
2019-01-11T02:48:52.841Z,23.08
2019-01-11T02:51:19.582Z,23.06
2019-01-11T02:53:46.225Z,23.10
2019-01-11T02:56:12.920Z,23.08
2019-01-11T02:58:39.578Z,23.09
2019-01-11T03:01:06.230Z,23.11
2019-01-11T03:03:32.875Z,23.13
2019-01-11T03:05:59.530Z,23.18
2019-01-11T03:08:26.172Z,23.16
2019-01-11T03:10:52.817Z,23.06
2019-01-11T03:13:19.452Z,23.00
2019-01-11T03:15:46.093Z,23.05
2019-01-11T03:18:12.747Z,23.01
2019-01-11T03:20:39.459Z,23.03
2019-01-11T03:23:06.101Z,23.06
2019-01-11T03:25:32.745Z,23.12
2019-01-11T03:27:59.400Z,23.05
2019-01-11T03:30:26.046Z,23.10
2019-01-11T03:32:52.701Z,23.11
2019-01-11T03:35:19.348Z,23.14
2019-01-11T03:37:46.005Z,23.08
2019-01-11T03:40:12.647Z,23.10
2019-01-11T03:42:39.291Z,23.13
2019-01-11T03:45:05.932Z,23.10
2019-01-11T03:47:32.572Z,23.12
2019-01-11T03:49:59.240Z,23.03
2019-01-11T03:52:25.902Z,23.13
2019-01-11T03:54:52.550Z,23.14
2019-01-11T03:57:19.207Z,23.10
2019-01-11T03:59:45.855Z,23.08
2019-01-11T04:02:12.498Z,23.05
2019-01-11T04:04:39.149Z,22.99
2019-01-11T04:07:05.788Z,22.97
2019-01-11T04:09:32.428Z,22.96
2019-01-11T04:11:59.088Z,23.00
2019-01-11T04:14:25.734Z,22.99
2019-01-11T04:16:52.373Z,23.05
2019-01-11T04:19:19.019Z,22.70
2019-01-11T04:21:45.679Z,21.54
2019-01-11T04:24:12.325Z,21.04
2019-01-11T04:26:38.956Z,20.56
2019-01-11T04:29:05.600Z,20.57
2019-01-11T04:31:32.248Z,20.62
2019-01-11T04:33:58.892Z,20.74
2019-01-11T04:36:25.537Z,20.91
2019-01-11T04:38:53.261Z,21.34
2019-01-11T04:41:18.827Z,21.89
2019-01-11T04:43:45.463Z,22.15
2019-01-11T04:46:12.109Z,22.37
2019-01-11T04:48:38.761Z,22.42
2019-01-11T04:51:05.499Z,22.49
2019-01-11T04:53:32.155Z,22.52
2019-01-11T04:55:58.807Z,22.56
2019-01-11T04:58:25.505Z,22.80
2019-01-11T05:00:52.152Z,22.78
2019-01-11T05:03:18.794Z,22.78
2019-01-11T05:05:45.570Z,22.77
2019-01-11T05:08:12.211Z,22.83
2019-01-11T05:10:38.845Z,22.67
2019-01-11T05:13:05.503Z,22.68
2019-01-11T05:15:32.136Z,22.63
2019-01-11T05:17:58.788Z,22.64
2019-01-11T05:20:25.428Z,22.67
2019-01-11T05:22:52.083Z,22.90
2019-01-11T05:25:18.723Z,22.84
2019-01-11T05:27:45.371Z,22.92
2019-01-11T05:30:12.026Z,22.93
2019-01-11T05:32:38.680Z,22.90
2019-01-11T05:35:05.333Z,22.93
2019-01-11T05:37:31.984Z,22.99
2019-01-11T05:39:58.632Z,22.95
2019-01-11T05:42:25.274Z,22.92
2019-01-11T05:44:51.926Z,22.87
2019-01-11T05:47:18.573Z,22.99
2019-01-11T05:49:45.231Z,23.00
2019-01-11T05:52:11.866Z,23.10
2019-01-11T05:54:38.889Z,23.03
2019-01-11T05:57:05.534Z,23.02
2019-01-11T05:59:32.184Z,23.02
2019-01-11T06:01:58.826Z,23.03
2019-01-11T06:04:25.514Z,23.02
2019-01-11T06:06:52.161Z,23.06
2019-01-11T06:09:18.811Z,23.08
2019-01-11T06:11:45.465Z,23.10
2019-01-11T06:14:12.124Z,23.08
2019-01-11T06:16:38.773Z,23.25
2019-01-11T06:19:05.428Z,23.16
2019-01-11T06:21:32.083Z,23.11
2019-01-11T06:23:58.723Z,23.08
2019-01-11T06:26:25.422Z,23.07
2019-01-11T06:28:52.065Z,23.18
2019-01-11T06:31:18.728Z,23.27
2019-01-11T06:33:45.377Z,23.29
2019-01-11T06:36:12.029Z,23.49
2019-01-11T06:38:38.681Z,23.47
2019-01-11T06:41:05.322Z,23.55
2019-01-11T06:43:31.971Z,23.49
2019-01-11T06:45:58.640Z,23.45
2019-01-11T06:48:25.292Z,23.52
2019-01-11T06:50:51.945Z,23.57
2019-01-11T06:53:18.598Z,23.65
2019-01-11T06:55:45.249Z,23.83
2019-01-11T06:58:11.883Z,23.84
2019-01-11T07:00:38.930Z,24.00
2019-01-11T07:03:07.054Z,23.87
2019-01-11T07:05:32.237Z,24.38
2019-01-11T07:07:58.881Z,24.11
2019-01-11T07:10:28.483Z,24.11
2019-01-11T07:12:55.134Z,24.18
2019-01-11T07:15:21.776Z,24.11
2019-01-11T07:17:48.450Z,24.18
2019-01-11T07:20:15.197Z,24.13
2019-01-11T07:22:41.984Z,24.26
2019-01-11T07:25:08.654Z,24.37
2019-01-11T07:27:35.313Z,24.56
2019-01-11T07:30:02.096Z,24.49
2019-01-11T07:32:28.788Z,24.59
2019-01-11T07:34:55.429Z,24.66
2019-01-11T07:37:22.082Z,24.74
2019-01-11T07:39:48.862Z,24.79
2019-01-11T07:42:15.592Z,24.73
2019-01-11T07:44:42.346Z,24.89
2019-01-11T07:47:08.964Z,24.89
2019-01-11T07:49:35.633Z,24.74
2019-01-11T07:52:02.303Z,24.89
2019-01-11T07:54:28.953Z,24.90
2019-01-11T07:56:55.629Z,24.99
2019-01-11T07:59:22.285Z,25.06
2019-01-11T08:01:49.011Z,25.03
2019-01-11T08:04:15.663Z,24.94
2019-01-11T08:06:42.330Z,24.98
2019-01-11T08:09:08.979Z,24.87
2019-01-11T08:11:36.683Z,24.87
2019-01-11T08:14:03.328Z,24.81
2019-01-11T08:16:29.976Z,24.83
2019-01-11T08:18:56.917Z,24.83
2019-01-11T08:21:23.690Z,24.85
2019-01-11T08:23:50.339Z,24.87
2019-01-11T08:26:16.996Z,24.76
2019-01-11T08:28:46.764Z,24.78
2019-01-11T08:31:13.463Z,24.79
2019-01-11T08:33:40.174Z,24.71
2019-01-11T08:36:07.895Z,24.84
2019-01-11T08:38:34.536Z,24.74
2019-01-11T08:41:01.198Z,24.81
2019-01-11T08:43:27.921Z,24.90
2019-01-11T08:45:55.749Z,24.94
2019-01-11T08:48:22.484Z,25.00
2019-01-11T08:50:49.146Z,25.07
2019-01-11T08:53:15.785Z,25.04
2019-01-11T08:55:42.604Z,25.07
2019-01-11T08:58:09.294Z,25.05
2019-01-11T09:00:35.945Z,25.10
2019-01-11T09:03:02.722Z,25.10
2019-01-11T09:05:29.442Z,25.05
2019-01-11T09:07:58.666Z,25.03
2019-01-11T09:10:25.366Z,24.90
2019-01-11T09:12:52.007Z,25.02
2019-01-11T09:15:18.693Z,24.78
2019-01-11T09:17:45.420Z,24.82
2019-01-11T09:20:12.097Z,24.86
2019-01-11T09:22:38.754Z,24.82
2019-01-11T09:25:05.396Z,24.89
2019-01-11T09:27:32.188Z,25.11
2019-01-11T09:29:58.832Z,25.06
2019-01-11T09:32:25.571Z,25.12
2019-01-11T09:34:52.229Z,25.20
2019-01-11T09:37:18.899Z,25.18
2019-01-11T09:39:48.371Z,25.25
2019-01-11T09:42:15.007Z,25.26
2019-01-11T09:44:41.724Z,25.41
2019-01-11T09:47:08.449Z,25.34
2019-01-11T09:49:35.284Z,25.41
2019-01-11T09:52:01.935Z,25.35
2019-01-11T09:54:28.575Z,25.30
2019-01-11T09:56:55.320Z,25.22
2019-01-11T09:59:21.963Z,25.32
2019-01-11T10:01:48.680Z,25.40
2019-01-11T10:04:15.414Z,25.33
2019-01-11T10:06:42.068Z,25.32
2019-01-11T10:09:08.739Z,25.23
2019-01-11T10:11:35.383Z,25.29
2019-01-11T10:14:02.070Z,25.52
2019-01-11T10:16:28.722Z,25.29
2019-01-11T10:18:55.377Z,25.14
2019-01-11T10:21:23.196Z,25.19
2019-01-11T10:23:48.729Z,25.21
2019-01-11T10:26:15.384Z,25.15
2019-01-11T10:28:42.099Z,25.26
2019-01-11T10:31:08.755Z,25.13
2019-01-11T10:33:36.326Z,25.11
2019-01-11T10:36:02.138Z,25.06
2019-01-11T10:38:28.855Z,25.02
2019-01-11T10:40:55.516Z,25.01
2019-01-11T10:43:22.163Z,24.72
2019-01-11T10:45:48.814Z,24.67
2019-01-11T10:48:15.458Z,24.23
2019-01-11T10:50:42.144Z,24.30
2019-01-11T10:53:08.857Z,24.45
2019-01-11T10:55:35.523Z,24.64
2019-01-11T10:58:02.161Z,24.63
2019-01-11T11:00:28.825Z,24.73
2019-01-11T11:02:55.514Z,24.65
2019-01-11T11:05:22.176Z,24.81
2019-01-11T11:07:50.127Z,24.74
2019-01-11T11:10:15.519Z,24.74
2019-01-11T11:12:42.171Z,24.76
2019-01-11T11:15:08.840Z,25.11
2019-01-11T11:17:35.484Z,24.89
2019-01-11T11:20:02.137Z,24.92
2019-01-11T11:22:28.846Z,24.86
2019-01-11T11:24:55.500Z,24.98
2019-01-11T11:27:22.151Z,25.24
2019-01-11T11:29:49.233Z,25.21
2019-01-11T11:32:15.885Z,25.22
2019-01-11T11:34:42.545Z,25.11
2019-01-11T11:37:09.799Z,25.15
2019-01-11T11:39:36.500Z,25.07
2019-01-11T11:42:03.148Z,25.18
2019-01-11T11:44:29.841Z,25.26
2019-01-11T11:46:56.487Z,25.14
2019-01-11T11:49:23.185Z,25.27
2019-01-11T11:51:49.831Z,25.26
2019-01-11T11:54:16.498Z,25.28
2019-01-11T11:56:43.163Z,25.28
2019-01-11T11:59:09.857Z,25.28
2019-01-11T12:01:36.917Z,25.28
2019-01-11T12:04:03.707Z,25.30
2019-01-11T12:06:30.385Z,25.19
2019-01-11T12:08:57.101Z,25.21
2019-01-11T12:11:23.854Z,25.30
2019-01-11T12:13:50.539Z,25.65
2019-01-11T12:16:17.212Z,25.32
2019-01-11T12:18:43.863Z,25.33
2019-01-11T12:21:10.553Z,25.19
2019-01-11T12:23:38.299Z,25.14
2019-01-11T12:26:04.968Z,25.09
2019-01-11T12:28:34.955Z,25.08
2019-01-11T12:31:01.764Z,25.12
2019-01-11T12:33:28.467Z,25.00
2019-01-11T12:35:55.136Z,24.99
2019-01-11T12:38:21.787Z,25.16
2019-01-11T12:40:48.435Z,25.14
2019-01-11T12:43:15.157Z,25.22
2019-01-11T12:45:42.196Z,25.23
2019-01-11T12:48:08.848Z,25.13
2019-01-11T12:50:35.625Z,25.03
2019-01-11T12:53:02.287Z,25.00
2019-01-11T12:55:28.996Z,25.07
2019-01-11T12:57:55.672Z,25.04
2019-01-11T13:00:22.392Z,25.08
2019-01-11T13:02:49.038Z,25.04
2019-01-11T13:05:15.748Z,24.99
2019-01-11T13:07:42.457Z,24.92
2019-01-11T13:10:09.463Z,25.03
2019-01-11T13:12:36.419Z,24.85
2019-01-11T13:15:03.198Z,24.90
2019-01-11T13:17:29.895Z,24.87
2019-01-11T13:19:56.566Z,24.84
2019-01-11T13:22:23.213Z,24.85
2019-01-11T13:24:49.864Z,24.98
2019-01-11T13:27:18.011Z,24.82
2019-01-11T13:29:43.237Z,24.99
2019-01-11T13:32:09.908Z,24.93
2019-01-11T13:34:36.582Z,25.04
2019-01-11T13:37:03.655Z,25.19
2019-01-11T13:39:30.488Z,24.95
2019-01-11T13:41:57.145Z,24.89
2019-01-11T13:44:23.799Z,24.80
2019-01-11T13:46:50.475Z,24.88
2019-01-11T13:49:17.132Z,24.84
2019-01-11T13:51:43.794Z,24.75
2019-01-11T13:54:10.489Z,24.74
2019-01-11T13:56:37.146Z,24.71
2019-01-11T13:59:03.791Z,24.65
2019-01-11T14:01:30.481Z,24.65
2019-01-11T14:03:57.165Z,24.98
2019-01-11T14:06:23.866Z,24.87
2019-01-11T14:08:50.543Z,24.74
2019-01-11T14:11:17.297Z,24.60
2019-01-11T14:13:44.534Z,24.67
2019-01-11T14:16:11.184Z,24.85
2019-01-11T14:18:37.851Z,24.67
2019-01-11T14:21:04.504Z,24.62
2019-01-11T14:23:31.215Z,24.67
2019-01-11T14:25:57.866Z,24.69
2019-01-11T14:28:24.569Z,24.54
2019-01-11T14:30:51.302Z,24.54
2019-01-11T14:33:17.941Z,24.47
2019-01-11T14:35:44.602Z,24.67
2019-01-11T14:38:11.255Z,24.57
2019-01-11T14:40:37.891Z,24.49
2019-01-11T14:43:04.598Z,24.44
2019-01-11T14:45:31.241Z,24.35
2019-01-11T14:47:57.973Z,24.36
2019-01-11T14:50:24.645Z,24.53
2019-01-11T14:52:51.317Z,24.37
2019-01-11T14:55:17.967Z,24.36
2019-01-11T14:57:44.721Z,24.36
2019-01-11T15:00:11.428Z,24.34
2019-01-11T15:02:38.073Z,24.32
2019-01-11T15:05:04.718Z,24.31
2019-01-11T15:07:31.355Z,24.25
2019-01-11T15:09:58.055Z,24.31
2019-01-11T15:12:24.710Z,24.28
2019-01-11T15:14:51.459Z,24.31
2019-01-11T15:17:18.233Z,24.22
2019-01-11T15:19:44.993Z,24.37
2019-01-11T15:22:11.645Z,24.26
2019-01-11T15:24:38.324Z,24.26
2019-01-11T15:27:04.965Z,24.40
2019-01-11T15:29:31.700Z,24.27
2019-01-11T15:31:58.346Z,24.20
2019-01-11T15:34:25.005Z,24.03
2019-01-11T15:36:51.646Z,23.94
2019-01-11T15:39:18.449Z,24.01
2019-01-11T15:41:45.104Z,24.21
2019-01-11T15:44:11.762Z,24.15
2019-01-11T15:46:38.406Z,24.14
2019-01-11T15:49:05.056Z,24.20
2019-01-11T15:51:31.726Z,24.22
2019-01-11T15:53:58.427Z,24.23
2019-01-11T15:56:25.072Z,24.22
2019-01-11T15:58:51.716Z,24.17
2019-01-11T16:01:18.371Z,24.19
2019-01-11T16:03:45.039Z,24.58
2019-01-11T16:06:11.734Z,24.49
2019-01-11T16:08:38.393Z,24.45
2019-01-11T16:11:05.063Z,24.31
2019-01-11T16:13:31.702Z,24.13
2019-01-11T16:15:58.472Z,24.19
2019-01-11T16:18:25.121Z,24.12
2019-01-11T16:20:51.777Z,24.07
2019-01-11T16:23:18.539Z,24.10
2019-01-11T16:25:45.252Z,24.06
2019-01-11T16:28:11.904Z,24.08
2019-01-11T16:30:38.554Z,24.05
2019-01-11T16:33:05.205Z,23.97
2019-01-11T16:35:31.846Z,23.97
2019-01-11T16:37:58.503Z,23.96
2019-01-11T16:40:27.228Z,23.97
2019-01-11T16:42:55.369Z,23.90
2019-01-11T16:45:20.531Z,23.90
2019-01-11T16:47:50.185Z,24.01
2019-01-11T16:50:16.839Z,23.92
2019-01-11T16:52:46.556Z,23.91
2019-01-11T16:55:10.171Z,23.87
2019-01-11T16:57:36.835Z,23.89
2019-01-11T17:00:03.483Z,23.83
2019-01-11T17:02:36.510Z,23.84
2019-01-11T17:04:56.823Z,23.75
2019-01-11T17:07:23.479Z,23.75
2019-01-11T17:09:50.146Z,23.91
2019-01-11T17:12:16.788Z,24.05
2019-01-11T17:14:43.519Z,23.98
2019-01-11T17:17:10.201Z,23.86
2019-01-11T17:19:36.893Z,23.77
2019-01-11T17:22:03.541Z,23.89
2019-01-11T17:24:30.186Z,23.85
2019-01-11T17:26:56.928Z,23.84
2019-01-11T17:29:23.547Z,23.74
2019-01-11T17:31:50.215Z,23.54
2019-01-11T17:34:16.870Z,23.49
2019-01-11T17:36:43.532Z,23.56
2019-01-11T17:39:10.236Z,23.60
2019-01-11T17:41:36.931Z,23.66
2019-01-11T17:44:03.571Z,23.69
2019-01-11T17:46:30.221Z,23.68
2019-01-11T17:48:56.912Z,23.74
2019-01-11T17:51:23.590Z,23.80
2019-01-11T17:53:50.414Z,23.80
2019-01-11T17:56:17.055Z,23.81
2019-01-11T17:58:43.706Z,23.80
2019-01-11T18:01:10.359Z,23.84
2019-01-11T18:03:37.069Z,23.85
2019-01-11T18:06:03.785Z,23.88
2019-01-11T18:08:30.440Z,23.86
2019-01-11T18:10:57.104Z,23.94
2019-01-11T18:13:23.784Z,23.90
2019-01-11T18:15:50.438Z,23.92
2019-01-11T18:18:17.164Z,23.90
2019-01-11T18:20:43.804Z,23.93
2019-01-11T18:23:10.488Z,23.94
2019-01-11T18:25:37.205Z,23.93
2019-01-11T18:28:03.893Z,23.92
2019-01-11T18:30:30.548Z,23.97
2019-01-11T18:32:57.194Z,23.98
2019-01-11T18:35:23.894Z,23.94
2019-01-11T18:37:50.557Z,23.93
2019-01-11T18:40:17.208Z,23.97
2019-01-11T18:42:43.880Z,24.16
2019-01-11T18:45:10.536Z,24.04
2019-01-11T18:47:37.244Z,24.00
2019-01-11T18:50:03.995Z,23.90
2019-01-11T18:52:30.631Z,23.79
2019-01-11T18:54:57.297Z,23.36
2019-01-11T18:57:23.949Z,23.16
2019-01-11T18:59:50.598Z,23.16
2019-01-11T19:02:17.249Z,23.40
2019-01-11T19:04:43.977Z,23.41
2019-01-11T19:07:10.544Z,23.45
2019-01-11T19:09:37.355Z,23.55
2019-01-11T19:12:05.225Z,23.55
2019-01-11T19:14:30.672Z,23.60
2019-01-11T19:16:57.316Z,23.65
2019-01-11T19:19:23.957Z,23.68
2019-01-11T19:21:50.691Z,23.68
2019-01-11T19:24:17.328Z,23.69
2019-01-11T19:26:44.049Z,23.71
2019-01-11T19:29:10.682Z,23.70
2019-01-11T19:31:37.333Z,23.75
2019-01-11T19:34:04.005Z,23.72
2019-01-11T19:36:30.721Z,23.85
2019-01-11T19:38:57.360Z,23.82
2019-01-11T19:41:24.008Z,23.71
2019-01-11T19:43:50.718Z,23.50
2019-01-11T19:46:17.376Z,23.44
2019-01-11T19:48:44.087Z,23.45
2019-01-11T19:51:12.151Z,23.54
2019-01-11T19:53:37.394Z,23.51
2019-01-11T19:56:04.120Z,23.52
2019-01-11T19:58:30.770Z,23.63
2019-01-11T20:00:57.488Z,23.57
2019-01-11T20:03:24.118Z,23.61
2019-01-11T20:05:50.783Z,23.65
2019-01-11T20:08:17.453Z,23.66
2019-01-11T20:10:44.156Z,23.64
2019-01-11T20:13:10.810Z,23.70
2019-01-11T20:15:37.452Z,23.67
2019-01-11T20:18:04.179Z,23.74
2019-01-11T20:20:30.794Z,23.69
2019-01-11T20:23:02.177Z,23.66
2019-01-11T20:25:24.147Z,23.71
2019-01-11T20:27:50.797Z,23.69
2019-01-11T20:30:17.444Z,23.62
2019-01-11T20:32:44.101Z,23.48
2019-01-11T20:35:11.073Z,23.53
2019-01-11T20:37:37.716Z,23.57
2019-01-11T20:40:04.386Z,23.49
2019-01-11T20:42:31.029Z,23.48
2019-01-11T20:44:57.905Z,23.51
2019-01-11T20:47:24.605Z,23.53
2019-01-11T20:49:51.250Z,23.55
2019-01-11T20:52:17.949Z,23.59
2019-01-11T20:54:44.587Z,23.59
2019-01-11T20:57:11.249Z,23.60
2019-01-11T20:59:37.889Z,23.65
2019-01-11T21:02:04.540Z,23.58
2019-01-11T21:04:31.186Z,23.63
2019-01-11T21:06:57.880Z,23.64
2019-01-11T21:09:26.154Z,23.65
2019-01-11T21:11:51.165Z,23.70
2019-01-11T21:14:17.805Z,23.66
2019-01-11T21:16:44.499Z,23.65
2019-01-11T21:19:11.140Z,23.59
2019-01-11T21:21:37.780Z,23.71
2019-01-11T21:24:04.423Z,23.65
2019-01-11T21:26:31.081Z,23.65
2019-01-11T21:28:57.728Z,23.65
2019-01-11T21:31:27.528Z,23.68
2019-01-11T21:33:54.168Z,23.59
2019-01-11T21:36:20.813Z,23.47
2019-01-11T21:38:47.453Z,23.49
2019-01-11T21:41:14.153Z,23.48
2019-01-11T21:43:40.868Z,23.49
2019-01-11T21:46:07.511Z,23.50
2019-01-11T21:48:34.172Z,23.52
2019-01-11T21:51:00.909Z,23.55
2019-01-11T21:53:27.580Z,23.60
2019-01-11T21:55:54.308Z,23.58
2019-01-11T21:58:20.969Z,23.56
2019-01-11T22:00:49.769Z,23.60
2019-01-11T22:03:14.368Z,23.61
2019-01-11T22:05:41.113Z,23.61
2019-01-11T22:08:07.841Z,23.60
2019-01-11T22:10:34.526Z,23.64
2019-01-11T22:13:01.193Z,23.65
2019-01-11T22:15:27.922Z,23.67
2019-01-11T22:17:54.591Z,23.66
2019-01-11T22:20:21.258Z,23.65
2019-01-11T22:22:48.023Z,23.58
2019-01-11T22:25:14.771Z,23.46
2019-01-11T22:27:41.499Z,23.51
2019-01-11T22:30:08.169Z,23.52
2019-01-11T22:32:36.191Z,23.52
2019-01-11T22:35:01.533Z,23.51
2019-01-11T22:37:28.365Z,23.54
2019-01-11T22:39:55.087Z,23.54
2019-01-11T22:42:21.804Z,23.53
2019-01-11T22:44:48.478Z,23.61
2019-01-11T22:47:15.217Z,23.66
2019-01-11T22:49:41.901Z,23.57
2019-01-11T22:52:08.565Z,23.61
2019-01-11T22:54:35.267Z,23.64
2019-01-11T22:57:01.974Z,23.59
2019-01-11T22:59:28.708Z,23.61
2019-01-11T23:01:55.380Z,23.64
2019-01-11T23:04:22.170Z,23.65
2019-01-11T23:06:48.850Z,23.65
2019-01-11T23:09:15.529Z,23.63
2019-01-11T23:11:42.204Z,23.55
2019-01-11T23:14:08.929Z,23.39
2019-01-11T23:16:35.601Z,23.48
2019-01-11T23:19:02.425Z,23.47
2019-01-11T23:21:29.096Z,23.43
2019-01-11T23:23:57.463Z,23.46
2019-01-11T23:26:22.501Z,23.47
2019-01-11T23:28:49.182Z,23.47
2019-01-11T23:31:15.868Z,23.49
2019-01-11T23:33:42.557Z,23.54
2019-01-11T23:36:09.290Z,23.53
2019-01-11T23:38:36.034Z,23.56
2019-01-11T23:41:02.705Z,23.61
2019-01-11T23:43:29.379Z,23.62
2019-01-11T23:45:56.114Z,23.56
2019-01-11T23:48:22.789Z,23.58
2019-01-11T23:50:49.632Z,23.58
2019-01-11T23:53:16.304Z,23.61
2019-01-11T23:55:42.973Z,23.53
2019-01-11T23:58:09.704Z,23.44
